Time;durP1;ratioP1;P1;durP2;ratioP2;P2;SDS_P1;SDS_P2;PMS_P1;PMS_P2;Temp;Humidity;BMP_temperature;BMP_pressure;BME280_temperature;BME280_humidity;BME280_pressure;Samples;Min_cycle;Max_cycle;Signal;HPM_P1;HPM_P2
2021/01/10 00:00:26;;;;;;;42.67;23.23;;;0.80;93.10;;;;;;4957702;28;20332;-80
2021/01/10 00:03:08;;;;;;;42.80;22.50;;;0.80;93.10;;;;;;4954250;28;20204;-81
2021/01/10 00:05:39;;;;;;;45.90;23.90;;;0.80;93.20;;;;;;4947539;28;20679;-81
2021/01/10 00:08:07;;;;;;;45.57;23.70;;;0.70;93.10;;;;;;4964729;28;20197;-80
2021/01/10 00:10:35;;;;;;;40.37;22.80;;;0.70;93.20;;;;;;4954608;28;20615;-80
2021/01/10 00:13:04;;;;;;;42.63;22.13;;;0.80;93.20;;;;;;4955807;28;20696;-83
2021/01/10 00:15:33;;;;;;;42.93;23.47;;;0.80;93.20;;;;;;4956132;28;20553;-80
2021/01/10 00:18:05;;;;;;;44.30;23.63;;;0.80;93.20;;;;;;4954538;28;20199;-81
2021/01/10 00:20:35;;;;;;;43.27;23.20;;;0.80;93.20;;;;;;4960802;28;20205;-80
2021/01/10 00:23:03;;;;;;;46.53;22.87;;;0.80;93.20;;;;;;4953007;28;20795;-82
2021/01/10 00:25:31;;;;;;;42.53;23.20;;;0.80;93.20;;;;;;4965113;28;20189;-81
2021/01/10 00:27:58;;;;;;;38.50;21.30;;;0.80;93.20;;;;;;4984851;28;20217;-81
2021/01/10 00:30:27;;;;;;;38.93;22.00;;;0.80;93.20;;;;;;4972811;28;20204;-80
2021/01/10 00:32:56;;;;;;;44.13;23.33;;;0.80;93.20;;;;;;4975721;28;20188;-81
2021/01/10 00:35:25;;;;;;;43.60;21.97;;;0.70;93.20;;;;;;4977539;28;20236;-81
2021/01/10 00:37:55;;;;;;;39.93;22.73;;;0.80;93.30;;;;;;4973097;28;20188;-81
2021/01/10 00:40:25;;;;;;;46.37;24.93;;;0.70;93.20;;;;;;4957569;28;21038;-81
2021/01/10 00:42:54;;;;;;;44.27;22.80;;;0.80;93.30;;;;;;4956658;28;20232;-79
2021/01/10 00:45:22;;;;;;;45.73;23.40;;;0.80;93.30;;;;;;4955413;28;20203;-82
2021/01/10 00:47:53;;;;;;;40.47;22.53;;;0.80;93.30;;;;;;4969970;28;20869;-81
2021/01/10 00:50:21;;;;;;;44.00;23.30;;;0.80;93.30;;;;;;4954371;28;20687;-81
2021/01/10 00:52:49;;;;;;;41.30;23.07;;;0.80;93.30;;;;;;4968571;28;20211;-79
2021/01/10 00:55:18;;;;;;;42.33;22.17;;;0.80;93.30;;;;;;4940507;28;20268;-80
2021/01/10 00:57:47;;;;;;;42.63;23.20;;;0.80;93.30;;;;;;4947745;28;20915;-80
2021/01/10 01:00:18;;;;;;;42.03;22.97;;;0.80;93.30;;;;;;4957286;28;20227;-81
2021/01/10 01:02:48;;;;;;;44.70;22.90;;;0.80;93.30;;;;;;4956711;28;20267;-81
2021/01/10 01:05:18;;;;;;;41.83;23.53;;;0.90;93.30;;;;;;4954966;28;20204;-81
2021/01/10 01:07:46;;;;;;;40.63;22.33;;;0.80;93.30;;;;;;4966289;28;20928;-80
2021/01/10 01:10:13;;;;;;;41.00;22.43;;;0.90;93.30;;;;;;4948892;28;20209;-79
2021/01/10 01:12:42;;;;;;;42.87;22.43;;;0.80;93.30;;;;;;4962591;28;20197;-82
2021/01/10 01:15:11;;;;;;;46.70;24.57;;;0.80;93.30;;;;;;4952284;28;20228;-81
2021/01/10 01:17:38;;;;;;;40.87;22.50;;;0.90;93.30;;;;;;4957568;28;20450;-80
2021/01/10 01:20:07;;;;;;;46.80;23.90;;;0.90;93.30;;;;;;4964297;28;20280;-81
2021/01/10 01:22:35;;;;;;;43.43;22.53;;;0.90;93.30;;;;;;4954418;28;20832;-80
2021/01/10 01:25:03;;;;;;;46.73;22.97;;;0.90;93.30;;;;;;4951499;28;20256;-80
2021/01/10 01:27:33;;;;;;;46.10;23.60;;;0.80;93.30;;;;;;4958036;28;20197;-81
2021/01/10 01:30:04;;;;;;;44.40;22.33;;;0.90;93.40;;;;;;4955900;28;20269;-81
2021/01/10 01:32:34;;;;;;;43.10;20.83;;;0.80;93.40;;;;;;4952052;28;20231;-80
2021/01/10 01:35:02;;;;;;;43.10;21.80;;;0.90;93.40;;;;;;4962426;28;20224;-81
2021/01/10 01:37:34;;;;;;;44.93;22.87;;;0.90;93.40;;;;;;4952418;28;20276;-80
2021/01/10 01:40:03;;;;;;;44.60;22.77;;;0.80;93.30;;;;;;4957072;28;20188;-81
2021/01/10 01:42:31;;;;;;;46.23;23.23;;;0.90;93.40;;;;;;4950371;28;20680;-79
2021/01/10 01:44:59;;;;;;;51.17;24.43;;;0.90;93.40;;;;;;4952397;28;20622;-81
2021/01/10 01:47:28;;;;;;;46.10;24.00;;;0.80;93.40;;;;;;4962659;28;20205;-79
2021/01/10 01:49:55;;;;;;;44.60;22.93;;;0.90;93.40;;;;;;4950145;28;20193;-80
2021/01/10 01:52:23;;;;;;;45.13;23.10;;;0.80;93.40;;;;;;4974383;28;20320;-80
2021/01/10 01:54:52;;;;;;;45.30;23.73;;;0.80;93.40;;;;;;4978760;28;20235;-81
2021/01/10 01:57:20;;;;;;;49.07;23.97;;;0.90;93.40;;;;;;4971322;28;20201;-82
2021/01/10 01:59:47;;;;;;;49.70;24.60;;;0.90;93.40;;;;;;4987326;28;20202;-81
2021/01/10 02:02:16;;;;;;;48.90;24.47;;;0.90;93.40;;;;;;4971028;28;20578;-82
2021/01/10 02:04:49;;;;;;;47.83;23.43;;;0.90;93.40;;;;;;4978919;28;20196;-81
2021/01/10 02:07:25;;;;;;;49.27;24.03;;;1.10;93.50;;;;;;4982593;28;20188;-80
2021/01/10 02:10:00;;;;;;;46.03;23.47;;;0.90;93.40;;;;;;4974094;28;20188;-82
2021/01/10 02:12:30;;;;;;;49.90;24.57;;;0.90;93.40;;;;;;4982104;28;20204;-80
2021/01/10 02:15:00;;;;;;;50.23;24.90;;;0.90;93.50;;;;;;4971360;28;20235;-80
2021/01/10 02:17:29;;;;;;;48.80;23.93;;;0.90;93.50;;;;;;4964088;28;20635;-80
2021/01/10 02:20:05;;;;;;;48.40;24.00;;;1.00;93.50;;;;;;4966334;28;20193;-79
2021/01/10 02:22:36;;;;;;;48.37;23.90;;;0.90;93.50;;;;;;4956617;28;20670;-80
2021/01/10 02:25:05;;;;;;;51.00;25.17;;;1.00;93.50;;;;;;4945127;28;20207;-81
2021/01/10 02:27:33;;;;;;;47.70;23.40;;;1.00;93.50;;;;;;4962432;28;20207;-80
2021/01/10 02:30:03;;;;;;;47.57;22.90;;;1.00;93.50;;;;;;4957182;28;20743;-80
2021/01/10 02:32:33;;;;;;;54.67;25.00;;;1.00;93.50;;;;;;4949772;28;20278;-81
2021/01/10 02:35:03;;;;;;;53.03;25.13;;;1.00;93.50;;;;;;4958751;28;20238;-80
2021/01/10 02:37:45;;;;;;;52.93;24.20;;;1.00;93.50;;;;;;4952337;28;20773;-79
2021/01/10 02:40:19;;;;;;;51.30;25.27;;;1.00;93.50;;;;;;4954935;28;20200;-81
2021/01/10 02:42:52;;;;;;;63.47;25.07;;;0.90;93.50;;;;;;4954035;28;20205;-82
2021/01/10 02:45:21;;;;;;;54.50;25.47;;;1.00;93.50;;;;;;4954002;28;20213;-82
2021/01/10 02:47:49;;;;;;;56.70;25.40;;;1.00;93.50;;;;;;4958176;28;20315;-81
2021/01/10 02:50:17;;;;;;;63.07;27.43;;;0.90;93.50;;;;;;4951175;28;20212;-80
2021/01/10 02:52:47;;;;;;;56.03;25.33;;;1.00;93.50;;;;;;4957817;28;20209;-80
2021/01/10 02:55:17;;;;;;;58.63;26.40;;;0.90;93.50;;;;;;4954546;28;20236;-80
2021/01/10 02:57:47;;;;;;;58.97;25.10;;;1.00;93.60;;;;;;4946867;28;20296;-82
2021/01/10 03:00:15;;;;;;;59.97;26.47;;;1.00;93.60;;;;;;4953479;28;20722;-81
2021/01/10 03:02:46;;;;;;;60.13;26.23;;;0.90;93.50;;;;;;4948702;28;20211;-81
2021/01/10 03:05:15;;;;;;;64.17;26.77;;;1.00;93.60;;;;;;4946288;28;20975;-81
2021/01/10 03:07:45;;;;;;;60.37;26.50;;;1.00;93.60;;;;;;4957914;28;20211;-80
2021/01/10 03:10:13;;;;;;;62.17;26.40;;;1.00;93.60;;;;;;4955731;28;20308;-81
2021/01/10 03:12:42;;;;;;;66.83;28.17;;;1.00;93.60;;;;;;4950017;28;20214;-81
2021/01/10 03:15:11;;;;;;;66.47;29.37;;;1.00;93.60;;;;;;4958392;28;20235;-80
2021/01/10 03:17:44;;;;;;;60.70;26.80;;;0.90;93.60;;;;;;4937402;28;20567;-80
2021/01/10 03:20:14;;;;;;;65.03;26.00;;;1.00;93.60;;;;;;4957256;28;20681;-80
2021/01/10 03:22:44;;;;;;;63.57;28.07;;;1.00;93.60;;;;;;4958038;28;20612;-81
2021/01/10 03:25:13;;;;;;;65.77;27.47;;;0.90;93.60;;;;;;4951876;28;20200;-79
2021/01/10 03:27:42;;;;;;;60.67;27.00;;;0.90;93.60;;;;;;4979015;28;20193;-79
2021/01/10 03:30:12;;;;;;;65.20;27.00;;;0.90;93.60;;;;;;4971578;28;20198;-79
2021/01/10 03:32:40;;;;;;;64.23;26.87;;;0.90;93.60;;;;;;4969347;28;20204;-82
2021/01/10 03:35:08;;;;;;;70.37;28.83;;;1.00;93.60;;;;;;4961192;28;20556;-80
2021/01/10 03:37:36;;;;;;;68.17;26.77;;;1.00;93.60;;;;;;4952043;28;20212;-81
2021/01/10 03:40:05;;;;;;;72.37;27.63;;;1.00;93.60;;;;;;4957102;28;20279;-79
2021/01/10 03:42:33;;;;;;;65.60;26.50;;;1.00;93.60;;;;;;4958883;28;20205;-79
2021/01/10 03:45:04;;;;;;;64.00;28.43;;;1.00;93.60;;;;;;4952883;28;20569;-80
2021/01/10 03:47:31;;;;;;;66.93;26.00;;;1.00;93.60;;;;;;4957513;28;20208;-81
2021/01/10 03:49:59;;;;;;;64.07;27.57;;;1.00;93.60;;;;;;4956393;28;20205;-81
2021/01/10 03:52:27;;;;;;;66.07;26.03;;;1.00;93.60;;;;;;4969087;28;20267;-80
2021/01/10 03:54:54;;;;;;;66.80;26.93;;;1.00;93.60;;;;;;4962749;28;20704;-82
2021/01/10 03:57:22;;;;;;;69.93;28.33;;;1.00;93.60;;;;;;4950745;28;20676;-81
2021/01/10 03:59:49;;;;;;;68.90;28.13;;;1.00;93.60;;;;;;4954941;28;20240;-80
2021/01/10 04:02:18;;;;;;;66.97;28.03;;;1.10;93.60;;;;;;4959774;28;20285;-81
2021/01/10 04:04:46;;;;;;;64.07;25.33;;;1.00;93.60;;;;;;4952001;28;20615;-80
2021/01/10 04:07:13;;;;;;;65.97;27.50;;;1.10;93.60;;;;;;4956957;28;20692;-80
2021/01/10 04:09:41;;;;;;;59.80;26.77;;;1.10;93.60;;;;;;4962785;28;20215;-81
2021/01/10 04:12:09;;;;;;;70.80;27.03;;;1.00;93.60;;;;;;4956446;28;20801;-80
2021/01/10 04:14:36;;;;;;;68.20;27.07;;;1.00;93.60;;;;;;4946748;28;20216;-80
2021/01/10 04:17:04;;;;;;;70.77;27.87;;;1.10;93.60;;;;;;4948292;28;20734;-82
2021/01/10 04:19:33;;;;;;;64.70;27.47;;;1.00;93.60;;;;;;4950306;28;20262;-80
2021/01/10 04:22:00;;;;;;;70.03;27.70;;;1.10;93.60;;;;;;4953590;28;20319;-81
2021/01/10 04:24:28;;;;;;;67.03;27.57;;;1.00;93.60;;;;;;4946941;28;20210;-80
2021/01/10 04:26:55;;;;;;;68.40;28.40;;;1.00;93.60;;;;;;4956559;28;20221;-82
2021/01/10 04:29:23;;;;;;;69.43;26.90;;;1.00;93.60;;;;;;4952192;28;20563;-81
2021/01/10 04:31:51;;;;;;;71.47;28.63;;;1.00;93.60;;;;;;4946212;28;20235;-81
2021/01/10 04:34:18;;;;;;;66.57;27.83;;;1.00;93.60;;;;;;4959975;28;20238;-81
2021/01/10 04:36:47;;;;;;;70.53;25.67;;;1.00;93.60;;;;;;4952700;28;20328;-80
2021/01/10 04:39:15;;;;;;;75.00;28.07;;;1.00;93.60;;;;;;4928340;28;20222;-81
2021/01/10 04:41:44;;;;;;;71.77;27.30;;;1.00;93.60;;;;;;4955994;28;20208;-80
2021/01/10 04:44:13;;;;;;;63.93;27.37;;;1.00;93.60;;;;;;4953549;28;20201;-80
2021/01/10 04:46:41;;;;;;;68.97;27.80;;;1.00;93.60;;;;;;4948666;28;20200;-81
2021/01/10 04:49:10;;;;;;;69.00;28.17;;;1.00;93.60;;;;;;4959148;28;20328;-80
2021/01/10 04:51:40;;;;;;;67.03;28.23;;;1.00;93.60;;;;;;4962840;28;20208;-79
2021/01/10 04:54:11;;;;;;;71.73;28.27;;;1.00;93.60;;;;;;4971750;28;20738;-81
2021/01/10 04:56:42;;;;;;;64.57;27.00;;;1.10;93.60;;;;;;4966364;28;20204;-81
2021/01/10 04:59:11;;;;;;;66.93;27.03;;;1.00;93.60;;;;;;4971323;28;20205;-81
2021/01/10 05:01:44;;;;;;;63.00;26.73;;;1.10;93.60;;;;;;4962409;28;20252;-82
2021/01/10 05:04:12;;;;;;;71.97;27.20;;;1.10;93.60;;;;;;4949456;28;20580;-82
2021/01/10 05:06:40;;;;;;;62.60;27.43;;;1.10;93.60;;;;;;4953117;28;20292;-82
2021/01/10 05:09:08;;;;;;;62.07;27.13;;;1.10;93.60;;;;;;4957360;28;20244;-81
2021/01/10 05:11:36;;;;;;;68.13;26.13;;;1.10;93.60;;;;;;4941113;28;20774;-81
2021/01/10 05:14:04;;;;;;;63.20;25.47;;;1.10;93.60;;;;;;4957225;28;20294;-80
2021/01/10 05:16:32;;;;;;;62.63;27.80;;;1.10;93.60;;;;;;4953683;28;20205;-79
2021/01/10 05:19:01;;;;;;;69.93;26.00;;;1.10;93.60;;;;;;4952178;28;20310;-80
2021/01/10 05:21:30;;;;;;;65.10;25.90;;;1.10;93.60;;;;;;4958498;28;20775;-82
2021/01/10 05:23:59;;;;;;;59.97;25.63;;;1.10;93.60;;;;;;4952428;28;20417;-79
2021/01/10 05:26:33;;;;;;;68.30;26.70;;;1.20;93.60;;;;;;4946817;28;20632;-81
2021/01/10 05:29:08;;;;;;;72.20;26.97;;;1.20;93.70;;;;;;4954903;28;20783;-81
2021/01/10 05:31:39;;;;;;;73.30;27.00;;;1.10;93.60;;;;;;4942534;28;20213;-80
2021/01/10 05:34:08;;;;;;;68.33;27.47;;;1.10;93.60;;;;;;4957545;28;20661;-81
2021/01/10 05:36:37;;;;;;;68.10;25.40;;;1.10;93.60;;;;;;4967113;28;20208;-82
2021/01/10 05:39:16;;;;;;;70.77;28.07;;;1.10;93.60;;;;;;4950051;28;20667;-80
2021/01/10 05:41:52;;;;;;;57.83;25.73;;;1.10;93.60;;;;;;4957848;28;20205;-81
2021/01/10 05:44:20;;;;;;;62.03;25.57;;;1.30;93.70;;;;;;4956047;28;20654;-80
2021/01/10 05:46:49;;;;;;;62.97;25.30;;;1.10;93.60;;;;;;4949804;28;20295;-79
2021/01/10 05:49:19;;;;;;;65.13;26.77;;;1.00;93.60;;;;;;4959374;28;20204;-80
2021/01/10 05:51:49;;;;;;;70.13;27.07;;;1.20;93.70;;;;;;4956561;28;20205;-80
2021/01/10 05:54:35;;;;;;;69.30;26.80;;;1.20;93.70;;;;;;4959143;28;20588;-81
2021/01/10 05:57:05;;;;;;;65.77;25.53;;;1.20;93.70;;;;;;4951114;28;20566;-79
2021/01/10 05:59:35;;;;;;;75.30;27.23;;;1.10;93.60;;;;;;4962295;28;20259;-81
2021/01/10 06:02:04;;;;;;;64.43;26.23;;;1.10;93.60;;;;;;4950186;28;20193;-82
2021/01/10 06:04:32;;;;;;;79.17;27.53;;;1.10;93.60;;;;;;4951179;28;20566;-81
2021/01/10 06:07:01;;;;;;;68.57;26.20;;;1.10;93.60;;;;;;4951046;28;20275;-81
2021/01/10 06:09:28;;;;;;;66.67;26.10;;;1.20;93.70;;;;;;4955584;28;20777;-82
2021/01/10 06:11:58;;;;;;;71.53;26.50;;;1.20;93.70;;;;;;4945440;28;20234;-80
2021/01/10 06:14:28;;;;;;;73.77;27.17;;;1.20;93.70;;;;;;4966034;28;20813;-81
2021/01/10 06:16:57;;;;;;;74.50;27.53;;;1.20;93.70;;;;;;4961488;28;20197;-81
2021/01/10 06:19:29;;;;;;;65.47;25.30;;;1.20;93.70;;;;;;4955787;28;20971;-81
2021/01/10 06:22:00;;;;;;;59.90;24.10;;;1.20;93.70;;;;;;4971670;28;20192;-81
2021/01/10 06:24:35;;;;;;;67.13;26.73;;;1.20;93.70;;;;;;4973342;28;20193;-79
2021/01/10 06:27:06;;;;;;;65.53;25.73;;;1.20;93.70;;;;;;4961729;28;20711;-80
2021/01/10 06:29:41;;;;;;;64.83;25.10;;;1.10;93.60;;;;;;4952629;28;20619;-80
2021/01/10 06:32:11;;;;;;;58.53;25.07;;;1.20;93.70;;;;;;4946903;28;20207;-80
2021/01/10 06:34:41;;;;;;;63.67;24.83;;;1.20;93.70;;;;;;4948170;28;20223;-82
2021/01/10 06:37:10;;;;;;;62.17;25.23;;;1.10;93.60;;;;;;4947693;28;20243;-81
2021/01/10 06:39:44;;;;;;;62.97;25.73;;;1.10;93.60;;;;;;4952794;28;20209;-81
2021/01/10 06:42:13;;;;;;;59.03;24.93;;;1.20;93.70;;;;;;4960043;28;20205;-82
2021/01/10 06:44:46;;;;;;;63.87;27.27;;;1.20;93.70;;;;;;4953735;28;20231;-81
2021/01/10 06:47:20;;;;;;;66.67;24.43;;;1.10;93.60;;;;;;4955564;28;20731;-81
2021/01/10 06:49:49;;;;;;;69.70;26.57;;;1.10;93.60;;;;;;4956849;28;20650;-82
2021/01/10 06:52:20;;;;;;;65.30;24.30;;;1.20;93.70;;;;;;4963135;28;20240;-82
2021/01/10 06:54:50;;;;;;;63.27;25.03;;;1.20;93.70;;;;;;4960197;28;20765;-82
2021/01/10 06:57:18;;;;;;;63.43;24.97;;;1.20;93.70;;;;;;4948765;28;20218;-81
2021/01/10 07:00:09;;;;;;;60.50;24.70;;;1.10;93.60;;;;;;4955607;28;20663;-80
2021/01/10 07:03:07;;;;;;;56.00;22.90;;;1.20;93.70;;;;;;4943942;28;20212;-81
2021/01/10 07:06:02;;;;;;;66.00;25.90;;;1.20;93.70;;;;;;4952765;28;20223;-81
2021/01/10 07:08:38;;;;;;;63.97;24.33;;;1.20;93.70;;;;;;4957169;28;20271;-81
2021/01/10 07:11:34;;;;;;;59.27;24.03;;;1.20;93.70;;;;;;4950637;28;20271;-81
2021/01/10 07:14:25;;;;;;;59.57;24.33;;;1.20;93.70;;;;;;4960049;28;20205;-83
2021/01/10 07:17:13;;;;;;;61.47;23.53;;;1.20;93.70;;;;;;4961959;28;20650;-80
2021/01/10 07:19:42;;;;;;;65.10;25.13;;;1.20;93.70;;;;;;4974690;28;20201;-82
2021/01/10 07:22:27;;;;;;;62.83;25.73;;;1.20;93.70;;;;;;4979974;28;20232;-81
2021/01/10 07:24:56;;;;;;;61.83;25.00;;;1.20;93.70;;;;;;4993032;28;20631;-80
2021/01/10 07:27:34;;;;;;;60.77;25.83;;;1.40;93.70;;;;;;4988506;28;20195;-82
2021/01/10 07:30:25;;;;;;;56.17;25.57;;;1.30;93.70;;;;;;4959600;28;20683;-80
2021/01/10 07:32:53;;;;;;;57.63;23.53;;;1.30;93.70;;;;;;4961787;28;20544;-80
2021/01/10 07:35:21;;;;;;;50.47;23.53;;;1.30;93.70;;;;;;4978104;28;20519;-82
2021/01/10 07:37:51;;;;;;;57.97;23.83;;;1.30;93.70;;;;;;4978115;28;20186;-81
2021/01/10 07:40:23;;;;;;;54.60;24.47;;;1.30;93.70;;;;;;4971632;28;20889;-81
2021/01/10 07:43:02;;;;;;;53.67;22.73;;;1.30;93.70;;;;;;4952685;28;20212;-80
2021/01/10 07:45:40;;;;;;;50.07;21.97;;;1.40;93.70;;;;;;4957714;28;20707;-80
2021/01/10 07:48:25;;;;;;;48.23;21.73;;;1.40;93.70;;;;;;4972977;28;20209;-80
2021/01/10 07:51:14;;;;;;;49.67;21.83;;;1.40;93.60;;;;;;4968310;28;20485;-82
2021/01/10 07:53:48;;;;;;;50.17;24.20;;;1.40;93.60;;;;;;4976737;28;20208;-80
2021/01/10 07:56:16;;;;;;;46.97;22.20;;;1.40;93.50;;;;;;4950707;28;20232;-80
2021/01/10 07:58:44;;;;;;;43.20;19.90;;;1.40;93.40;;;;;;4960865;28;20205;-82
2021/01/10 08:01:12;;;;;;;44.80;20.57;;;1.40;93.30;;;;;;4954265;28;20579;-82
2021/01/10 08:03:41;;;;;;;49.40;22.40;;;1.40;93.30;;;;;;4951572;28;20208;-79
2021/01/10 08:06:09;;;;;;;43.43;20.20;;;1.40;93.30;;;;;;4954451;28;20208;-82
2021/01/10 08:08:45;;;;;;;45.30;21.60;;;1.40;93.20;;;;;;4958690;28;20348;-81
2021/01/10 08:11:29;;;;;;;45.43;21.63;;;1.50;93.20;;;;;;4952957;28;20710;-81
2021/01/10 08:13:57;;;;;;;45.20;21.50;;;1.50;93.10;;;;;;4954645;28;20220;-79
2021/01/10 08:16:32;;;;;;;44.20;19.93;;;1.50;93.10;;;;;;4953905;28;20232;-80
2021/01/10 08:19:03;;;;;;;40.03;20.70;;;1.50;92.90;;;;;;4956379;28;20429;-79
2021/01/10 08:21:32;;;;;;;39.93;21.80;;;1.60;92.80;;;;;;4955227;28;20209;-81
2021/01/10 08:24:05;;;;;;;48.97;21.70;;;1.60;92.80;;;;;;4950637;28;20291;-80
2021/01/10 08:26:38;;;;;;;39.83;19.87;;;1.60;92.80;;;;;;4958804;28;20859;-83
2021/01/10 08:29:06;;;;;;;40.77;20.13;;;1.60;92.60;;;;;;4954004;28;20201;-81
2021/01/10 08:31:35;;;;;;;37.37;20.60;;;1.70;92.50;;;;;;4953123;28;20416;-81
2021/01/10 08:34:05;;;;;;;37.03;19.37;;;1.70;92.30;;;;;;4960757;28;20201;-80
2021/01/10 08:36:35;;;;;;;40.07;19.17;;;1.70;92.20;;;;;;4976805;28;20303;-81
2021/01/10 08:39:08;;;;;;;32.43;18.37;;;1.70;92.00;;;;;;4974484;28;20639;-81
2021/01/10 08:41:37;;;;;;;35.43;18.80;;;1.70;92.00;;;;;;4977055;28;20228;-82
2021/01/10 08:44:11;;;;;;;36.10;18.80;;;1.70;92.00;;;;;;4973998;28;20272;-81
2021/01/10 08:46:41;;;;;;;35.83;18.13;;;1.80;92.10;;;;;;4963196;28;20289;-82
2021/01/10 08:49:14;;;;;;;34.73;18.20;;;1.70;91.90;;;;;;4955562;28;20595;-81
2021/01/10 08:51:48;;;;;;;33.30;17.10;;;1.70;91.70;;;;;;4957289;28;20227;-80
2021/01/10 08:54:19;;;;;;;38.17;19.20;;;1.90;91.70;;;;;;4961989;28;20677;-81
2021/01/10 08:56:52;;;;;;;33.47;17.40;;;1.70;91.50;;;;;;4956073;28;20249;-82
2021/01/10 08:59:20;;;;;;;30.73;17.50;;;1.80;91.50;;;;;;4958768;28;20589;-80
2021/01/10 09:01:48;;;;;;;30.57;16.77;;;1.80;91.50;;;;;;4962124;28;20211;-79
2021/01/10 09:04:18;;;;;;;31.83;16.90;;;1.80;91.50;;;;;;4954690;28;20215;-81
2021/01/10 09:06:57;;;;;;;30.97;16.93;;;1.80;91.40;;;;;;4961228;28;20603;-81
2021/01/10 09:09:44;;;;;;;30.70;16.73;;;2.00;91.50;;;;;;4947167;28;20209;-82
2021/01/10 09:12:22;;;;;;;30.80;16.70;;;1.90;91.30;;;;;;4953903;28;20197;-82
2021/01/10 09:14:54;;;;;;;33.13;16.73;;;1.90;91.30;;;;;;4972407;28;20239;-83
2021/01/10 09:17:26;;;;;;;33.90;17.80;;;1.90;91.10;;;;;;4970067;28;20575;-81
2021/01/10 09:20:08;;;;;;;35.40;18.20;;;1.90;91.00;;;;;;4981668;28;20565;-83
2021/01/10 09:22:36;;;;;;;33.77;17.33;;;1.90;91.10;;;;;;4961004;28;20632;-82
2021/01/10 09:25:11;;;;;;;36.07;17.70;;;1.90;91.20;;;;;;4960135;28;20201;-81
2021/01/10 09:27:39;;;;;;;33.30;17.17;;;2.00;91.20;;;;;;4956332;28;20272;-83
2021/01/10 09:30:08;;;;;;;32.40;16.97;;;1.90;91.20;;;;;;4946997;28;20225;-81
2021/01/10 09:32:35;;;;;;;33.30;17.57;;;1.90;91.30;;;;;;4957822;28;20643;-81
2021/01/10 09:35:04;;;;;;;31.70;16.63;;;2.00;91.40;;;;;;4954039;28;20206;-81
2021/01/10 09:37:33;;;;;;;31.70;16.37;;;2.00;91.30;;;;;;4957960;28;20206;-81
2021/01/10 09:40:08;;;;;;;31.37;17.03;;;2.00;91.30;;;;;;4968197;28;20256;-82
2021/01/10 09:42:44;;;;;;;33.47;17.60;;;2.10;91.50;;;;;;4961627;28;20261;-83
2021/01/10 09:45:13;;;;;;;32.17;17.03;;;2.10;91.40;;;;;;4956832;28;20207;-83
2021/01/10 09:47:50;;;;;;;36.67;18.47;;;2.10;91.50;;;;;;4958860;28;20240;-83
2021/01/10 09:50:19;;;;;;;34.37;18.07;;;2.20;91.40;;;;;;4950167;28;20205;-82
2021/01/10 09:52:48;;;;;;;32.00;18.27;;;2.20;91.40;;;;;;4966479;28;20202;-81
2021/01/10 09:55:18;;;;;;;33.87;17.60;;;2.20;91.40;;;;;;4949149;28;20317;-81
2021/01/10 09:57:45;;;;;;;37.53;17.87;;;2.30;91.40;;;;;;4958096;28;20728;-83
2021/01/10 10:00:17;;;;;;;35.00;18.33;;;2.30;91.30;;;;;;4968475;28;20767;-82
2021/01/10 10:02:47;;;;;;;33.10;18.20;;;2.40;91.20;;;;;;4966051;28;20802;-79
2021/01/10 10:05:16;;;;;;;36.13;18.67;;;2.40;91.30;;;;;;4973212;28;20233;-81
2021/01/10 10:07:46;;;;;;;34.53;17.27;;;2.50;91.30;;;;;;4955655;28;20206;-80
2021/01/10 10:10:25;;;;;;;39.00;18.33;;;2.40;91.20;;;;;;4947715;28;20234;-82
2021/01/10 10:12:55;;;;;;;39.20;18.47;;;2.40;91.20;;;;;;4959170;28;20401;-81
2021/01/10 10:15:34;;;;;;;35.60;17.27;;;2.40;91.20;;;;;;4934278;28;20235;-82
2021/01/10 10:18:02;;;;;;;32.53;17.93;;;2.30;91.40;;;;;;4953046;28;20233;-82
2021/01/10 10:20:30;;;;;;;37.77;18.63;;;2.30;91.40;;;;;;4935586;28;20354;-79
2021/01/10 10:23:08;;;;;;;30.10;16.70;;;2.20;91.40;;;;;;4956364;28;20208;-80
2021/01/10 10:25:36;;;;;;;37.40;18.13;;;2.40;91.60;;;;;;4960024;28;20234;-82
2021/01/10 10:28:05;;;;;;;33.00;17.13;;;2.20;91.50;;;;;;4951697;28;20201;-82
2021/01/10 10:30:33;;;;;;;36.17;18.13;;;2.20;91.50;;;;;;4955573;28;20210;-81
2021/01/10 10:33:02;;;;;;;32.30;17.60;;;2.30;91.60;;;;;;4957715;28;20210;-80
2021/01/10 10:35:30;;;;;;;36.53;18.37;;;2.30;91.60;;;;;;4950412;28;20685;-80
2021/01/10 10:37:58;;;;;;;34.67;17.43;;;2.20;91.60;;;;;;4957543;28;20270;-82
2021/01/10 10:40:27;;;;;;;34.33;18.07;;;2.30;91.60;;;;;;4951642;28;20791;-82
2021/01/10 10:42:55;;;;;;;37.53;18.00;;;2.30;91.50;;;;;;4975674;28;20193;-81
2021/01/10 10:45:22;;;;;;;33.17;16.83;;;2.40;91.50;;;;;;4960873;28;20522;-80
2021/01/10 10:47:50;;;;;;;33.27;16.37;;;2.40;91.40;;;;;;4953722;28;20711;-81
2021/01/10 10:50:18;;;;;;;29.63;16.10;;;2.40;91.20;;;;;;4953380;28;20571;-81
2021/01/10 10:52:46;;;;;;;33.97;16.43;;;2.50;91.20;;;;;;4967596;28;20214;-80
2021/01/10 10:55:16;;;;;;;32.73;16.83;;;2.30;91.30;;;;;;4949204;28;20269;-81
2021/01/10 10:57:45;;;;;;;30.50;16.33;;;2.30;91.50;;;;;;4957348;28;20196;-80
2021/01/10 11:00:13;;;;;;;31.47;15.53;;;2.30;91.30;;;;;;4950393;28;20675;-81
2021/01/10 11:02:43;;;;;;;32.27;15.00;;;2.30;91.30;;;;;;4950117;28;20610;-81
2021/01/10 11:05:12;;;;;;;27.93;14.73;;;2.30;91.30;;;;;;4955764;28;20869;-81
2021/01/10 11:07:39;;;;;;;34.37;15.87;;;2.30;91.40;;;;;;4947797;28;20217;-80
2021/01/10 11:10:08;;;;;;;28.80;15.57;;;2.40;91.40;;;;;;4950695;28;20232;-81
2021/01/10 11:12:36;;;;;;;33.67;15.77;;;2.40;91.40;;;;;;4954258;28;20576;-80
2021/01/10 11:15:07;;;;;;;30.80;15.90;;;2.30;91.30;;;;;;4942199;28;20469;-81
2021/01/10 11:17:35;;;;;;;31.97;15.60;;;2.40;91.10;;;;;;4952960;28;20444;-81
2021/01/10 11:20:04;;;;;;;32.73;16.37;;;2.30;91.00;;;;;;4948775;28;20261;-81
2021/01/10 11:22:35;;;;;;;29.00;15.57;;;2.30;91.20;;;;;;4951893;28;20632;-81
2021/01/10 11:25:04;;;;;;;32.00;15.87;;;2.20;91.30;;;;;;4975591;28;20401;-79
2021/01/10 11:27:31;;;;;;;29.50;15.60;;;2.20;91.50;;;;;;4953830;28;20704;-81
2021/01/10 11:29:59;;;;;;;30.53;15.40;;;2.20;91.70;;;;;;4966809;28;20245;-79
2021/01/10 11:32:27;;;;;;;29.33;14.10;;;2.10;91.60;;;;;;4960293;28;20668;-79
2021/01/10 11:34:55;;;;;;;25.83;13.97;;;2.10;91.60;;;;;;4951194;28;20542;-80
2021/01/10 11:37:23;;;;;;;30.30;14.87;;;2.10;91.60;;;;;;4969645;28;20718;-81
2021/01/10 11:39:51;;;;;;;27.97;14.13;;;2.20;91.80;;;;;;4956194;28;20643;-80
2021/01/10 11:42:34;;;;;;;25.17;14.60;;;2.10;91.90;;;;;;4950730;28;20279;-81
2021/01/10 11:45:04;;;;;;;30.67;15.40;;;2.20;91.80;;;;;;4960737;28;20212;-81
2021/01/10 11:47:35;;;;;;;28.97;15.20;;;2.20;91.80;;;;;;4946125;28;20205;-82
2021/01/10 11:50:04;;;;;;;32.63;16.73;;;2.20;91.90;;;;;;4960175;28;20208;-79
2021/01/10 11:52:31;;;;;;;32.97;17.47;;;2.20;91.90;;;;;;4965446;28;20201;-81
2021/01/10 11:54:59;;;;;;;35.50;17.27;;;2.20;92.00;;;;;;4955093;28;20214;-81
2021/01/10 11:57:27;;;;;;;34.13;17.90;;;2.20;92.00;;;;;;4964184;28;20229;-81
2021/01/10 11:59:54;;;;;;;43.50;17.77;;;2.20;92.20;;;;;;4958828;28;20257;-78
2021/01/10 12:02:21;;;;;;;42.53;19.73;;;2.10;92.20;;;;;;4953676;28;20215;-82
2021/01/10 12:04:50;;;;;;;43.93;19.90;;;2.10;92.30;;;;;;4960520;28;20264;-80
2021/01/10 12:07:18;;;;;;;38.87;20.37;;;2.10;92.50;;;;;;4953991;28;20213;-81
2021/01/10 12:09:46;;;;;;;55.77;22.73;;;2.00;92.50;;;;;;4973939;28;20277;-80
2021/01/10 12:12:15;;;;;;;47.33;21.67;;;2.00;92.60;;;;;;4972219;28;20468;-80
2021/01/10 12:14:43;;;;;;;49.07;22.50;;;1.90;92.70;;;;;;4959892;28;20201;-79
2021/01/10 12:17:10;;;;;;;56.67;22.50;;;1.90;92.90;;;;;;4972192;28;20418;-82
2021/01/10 12:19:38;;;;;;;54.40;21.80;;;1.90;92.90;;;;;;4978929;28;20514;-81
2021/01/10 12:22:06;;;;;;;52.83;21.97;;;1.80;93.00;;;;;;4949770;28;20201;-79
2021/01/10 12:24:34;;;;;;;58.77;23.80;;;1.80;93.10;;;;;;4963247;28;20204;-80
2021/01/10 12:27:01;;;;;;;50.43;22.70;;;1.70;93.20;;;;;;4954687;28;20205;-82
2021/01/10 12:29:29;;;;;;;47.47;22.20;;;1.70;93.20;;;;;;4953025;28;20216;-81
2021/01/10 12:32:00;;;;;;;56.47;24.00;;;1.70;93.30;;;;;;4949109;28;20205;-83
2021/01/10 12:34:28;;;;;;;54.90;24.83;;;1.60;93.20;;;;;;4953604;28;20619;-82
2021/01/10 12:36:55;;;;;;;47.37;23.60;;;1.70;93.30;;;;;;4954580;28;20340;-82
2021/01/10 12:39:23;;;;;;;51.83;24.13;;;1.70;93.40;;;;;;4965537;28;20304;-83
2021/01/10 12:41:51;;;;;;;57.73;25.80;;;1.70;93.50;;;;;;4961474;28;20212;-79
2021/01/10 12:44:19;;;;;;;60.53;25.37;;;1.70;93.40;;;;;;4974462;28;20264;-81
2021/01/10 12:46:46;;;;;;;57.93;23.87;;;1.60;93.40;;;;;;4978952;28;20181;-81
2021/01/10 12:49:14;;;;;;;55.60;25.47;;;1.80;93.50;;;;;;4976437;28;20250;-81
2021/01/10 12:51:42;;;;;;;54.60;23.77;;;1.80;93.50;;;;;;4979356;28;20222;-81